createdAt,value
2019-01-19T00:02:22.101Z,0.10
2019-01-19T00:05:26.675Z,0.30
2019-01-19T00:08:05.131Z,0.20
2019-01-19T00:10:55.333Z,0.10
2019-01-19T00:13:42.916Z,0.00
2019-01-19T00:16:24.474Z,-0.20
2019-01-19T00:19:05.942Z,0.00
2019-01-19T00:21:53.844Z,-0.20
2019-01-19T00:24:26.569Z,-0.30
2019-01-19T00:27:08.121Z,-0.20
2019-01-19T00:29:46.605Z,-0.20
2019-01-19T00:32:19.317Z,-0.10
2019-01-19T00:35:18.054Z,-0.40
2019-01-19T00:37:50.267Z,-0.10
2019-01-19T00:40:25.959Z,0.10
2019-01-19T00:42:57.925Z,0.00
2019-01-19T00:45:45.769Z,0.00
2019-01-19T00:48:27.544Z,-0.10
2019-01-19T00:51:03.297Z,-0.40
2019-01-19T00:53:48.141Z,-0.50
2019-01-19T00:56:38.661Z,-0.50
2019-01-19T00:59:14.320Z,-0.50
2019-01-19T01:01:56.114Z,-0.40
2019-01-19T01:04:31.430Z,-0.50
2019-01-19T01:07:37.308Z,-0.50
2019-01-19T01:10:10.043Z,-1.10
2019-01-19T01:13:06.664Z,-0.90
2019-01-19T01:15:51.376Z,-1.10
2019-01-19T01:18:40.544Z,-1.20
2019-01-19T01:21:21.105Z,-1.00
2019-01-19T01:23:53.787Z,-1.10
2019-01-19T01:26:35.680Z,-1.00
2019-01-19T01:29:14.332Z,-1.20
2019-01-19T01:31:47.178Z,-1.20
2019-01-19T01:34:34.793Z,-1.10
2019-01-19T01:37:10.405Z,-1.30
2019-01-19T01:39:48.636Z,-1.30
2019-01-19T01:42:30.620Z,-1.20
2019-01-19T01:45:16.456Z,-1.50
2019-01-19T01:48:24.291Z,-1.50
2019-01-19T01:51:02.348Z,-1.40
2019-01-19T01:53:54.708Z,-1.50
2019-01-19T01:56:24.729Z,-1.60
2019-01-19T01:59:12.499Z,-1.60
2019-01-19T02:01:54.264Z,-1.60
2019-01-19T02:04:35.324Z,-1.70
2019-01-19T02:07:10.591Z,-1.50
2019-01-19T02:09:58.285Z,-1.50
2019-01-19T02:12:37.224Z,-2.20
2019-01-19T02:15:25.188Z,-2.00
2019-01-19T02:18:00.903Z,-2.10
2019-01-19T02:21:01.151Z,-1.80
2019-01-19T02:23:39.581Z,-1.60
2019-01-19T02:26:27.256Z,-1.80
2019-01-19T02:29:05.565Z,-1.90
2019-01-19T02:31:56.273Z,-1.80
2019-01-19T02:34:34.771Z,-1.70
2019-01-19T02:37:07.563Z,-1.70
2019-01-19T02:39:46.152Z,-1.60
2019-01-19T02:42:27.488Z,-2.00
2019-01-19T02:45:12.131Z,-2.20
2019-01-19T02:48:10.299Z,-2.00
2019-01-19T02:50:48.932Z,-2.00
2019-01-19T02:53:33.440Z,-2.50
2019-01-19T02:56:18.193Z,-2.40
2019-01-19T02:58:54.452Z,-2.20
2019-01-19T03:01:42.400Z,-1.90
2019-01-19T03:04:24.283Z,-1.80
2019-01-19T03:07:00.604Z,-2.30
2019-01-19T03:09:52.370Z,-2.40
2019-01-19T03:12:31.284Z,-2.30
2019-01-19T03:15:28.072Z,-2.00
2019-01-19T03:18:06.613Z,-1.90
2019-01-19T03:20:48.389Z,-1.90
2019-01-19T03:23:24.223Z,-2.10
2019-01-19T03:25:56.920Z,-2.30
2019-01-19T03:28:35.404Z,-2.20
2019-01-19T03:31:29.230Z,-2.10
2019-01-19T03:34:10.286Z,-2.00
2019-01-19T03:36:45.632Z,-2.30
2019-01-19T03:39:21.040Z,-2.40
2019-01-19T03:41:56.934Z,-2.30
2019-01-19T03:44:49.089Z,-2.30
2019-01-19T03:47:27.684Z,-2.30
2019-01-19T03:50:24.600Z,-2.20
2019-01-19T03:53:05.714Z,-2.00
2019-01-19T03:56:01.314Z,-2.10
2019-01-19T03:58:51.820Z,-2.10
2019-01-19T04:01:41.100Z,-2.30
2019-01-19T04:04:13.832Z,-2.20
2019-01-19T04:07:04.696Z,-2.10
2019-01-19T04:09:37.425Z,-2.30
2019-01-19T04:12:37.492Z,-2.70
2019-01-19T04:15:13.312Z,-3.00
2019-01-19T04:17:51.972Z,-2.70
2019-01-19T04:20:47.331Z,-2.60
2019-01-19T04:23:16.965Z,-2.60
2019-01-19T04:25:49.732Z,-2.50
2019-01-19T04:28:19.723Z,-2.30
2019-01-19T04:30:49.711Z,-2.30
2019-01-19T04:33:19.396Z,-2.30
2019-01-19T04:35:49.191Z,-2.50
2019-01-19T04:38:18.918Z,-2.60
2019-01-19T04:40:48.613Z,-2.40
2019-01-19T04:43:18.306Z,-2.80
2019-01-19T04:45:47.960Z,-3.00
2019-01-19T04:48:19.237Z,-3.10
2019-01-19T04:50:48.886Z,-2.90
2019-01-19T04:53:18.518Z,-2.70
2019-01-19T04:55:48.170Z,-2.80
2019-01-19T04:58:17.852Z,-3.20
2019-01-19T05:00:47.499Z,-2.90
2019-01-19T05:03:17.196Z,-3.00
2019-01-19T05:05:46.832Z,-2.90
2019-01-19T05:08:16.474Z,-3.30
2019-01-19T05:10:46.147Z,-3.20
2019-01-19T05:13:15.766Z,-2.90
2019-01-19T05:15:45.427Z,-2.80
2019-01-19T05:18:15.514Z,-3.00
2019-01-19T05:20:45.157Z,-2.90
2019-01-19T05:23:14.789Z,-3.10
2019-01-19T05:25:44.447Z,-3.30
2019-01-19T05:28:14.349Z,-3.30
2019-01-19T05:30:44.086Z,-3.30
2019-01-19T05:33:13.792Z,-3.40
2019-01-19T05:35:43.439Z,-3.30
2019-01-19T05:38:13.088Z,-3.30
2019-01-19T05:40:42.742Z,-3.10
2019-01-19T05:43:12.388Z,-3.40
2019-01-19T05:45:42.043Z,-3.50
2019-01-19T05:48:11.677Z,-3.40
2019-01-19T05:50:41.395Z,-3.20
2019-01-19T05:53:11.093Z,-3.40
2019-01-19T05:55:40.803Z,-3.50
2019-01-19T05:58:11.702Z,-3.60
2019-01-19T06:00:41.389Z,-3.60
2019-01-19T06:03:11.106Z,-3.90
2019-01-19T06:05:41.503Z,-3.80
2019-01-19T06:08:11.845Z,-3.70
2019-01-19T06:10:41.480Z,-3.70
2019-01-19T06:13:11.200Z,-3.50
2019-01-19T06:15:40.986Z,-3.30
2019-01-19T06:18:10.787Z,-3.60
2019-01-19T06:20:40.415Z,-3.30
2019-01-19T06:23:22.378Z,-3.50
2019-01-19T06:25:52.004Z,-3.70
2019-01-19T06:28:21.643Z,-3.90
2019-01-19T06:30:51.471Z,-3.60
2019-01-19T06:33:23.052Z,-3.30
2019-01-19T06:35:52.686Z,-3.20
2019-01-19T06:38:22.426Z,-3.70
2019-01-19T06:40:52.132Z,-4.10
2019-01-19T06:43:21.941Z,-4.10
2019-01-19T06:45:51.640Z,-4.10
2019-01-19T06:48:21.356Z,-4.30
2019-01-19T06:50:51.008Z,-3.90
2019-01-19T06:53:20.664Z,-3.40
2019-01-19T06:55:50.474Z,-3.20
2019-01-19T06:58:20.124Z,-3.10
2019-01-19T07:00:49.746Z,-3.40
2019-01-19T07:03:19.405Z,-3.90
2019-01-19T07:05:49.043Z,-3.70
2019-01-19T07:08:20.257Z,-3.50
2019-01-19T07:10:50.151Z,-2.80
2019-01-19T07:13:19.792Z,-2.60
2019-01-19T07:15:49.500Z,-2.40
2019-01-19T07:18:19.310Z,-2.50
2019-01-19T07:20:48.941Z,-3.00
2019-01-19T07:23:18.584Z,-3.20
2019-01-19T07:25:48.212Z,-3.20
2019-01-19T07:28:17.868Z,-2.70
2019-01-19T07:30:47.511Z,-2.90
2019-01-19T07:33:17.221Z,-3.10
2019-01-19T07:35:46.862Z,-3.10
2019-01-19T07:38:16.542Z,-3.20
2019-01-19T07:40:46.181Z,-3.00
2019-01-19T07:43:16.566Z,-2.70
2019-01-19T07:45:46.223Z,-2.80
2019-01-19T07:48:16.353Z,-2.60
2019-01-19T07:50:46.004Z,-2.60
2019-01-19T07:53:15.644Z,-2.70
2019-01-19T07:55:45.293Z,-2.70
2019-01-19T07:58:14.921Z,-2.50
2019-01-19T08:00:44.642Z,-2.00
2019-01-19T08:03:14.285Z,-1.80
2019-01-19T08:05:44.062Z,-2.10
2019-01-19T08:08:13.697Z,-2.40
2019-01-19T08:10:43.428Z,-2.30
2019-01-19T08:13:13.061Z,-1.90
2019-01-19T08:15:42.725Z,-1.80
2019-01-19T08:18:12.460Z,-1.70
2019-01-19T08:20:42.220Z,-1.50
2019-01-19T08:23:11.910Z,-1.90
2019-01-19T08:25:41.641Z,-2.00
2019-01-19T08:28:11.269Z,-2.10
2019-01-19T08:30:40.918Z,-2.10
2019-01-19T08:33:10.641Z,-1.60
2019-01-19T08:35:40.976Z,-1.50
2019-01-19T08:38:10.609Z,-1.40
2019-01-19T08:40:40.266Z,-1.50
2019-01-19T08:43:11.602Z,-1.40
2019-01-19T08:45:41.888Z,-1.60
2019-01-19T08:48:11.700Z,-1.40
2019-01-19T08:50:41.444Z,-1.10
2019-01-19T08:53:11.144Z,-1.00
2019-01-19T08:55:40.884Z,-1.20
2019-01-19T08:58:10.668Z,-1.40
2019-01-19T09:00:40.481Z,-1.70
2019-01-19T09:03:10.118Z,-1.60
2019-01-19T09:05:39.764Z,-1.30
2019-01-19T09:08:09.401Z,-1.00
2019-01-19T09:10:39.134Z,-1.10
2019-01-19T09:13:10.447Z,-1.40
2019-01-19T09:15:40.034Z,-1.40
2019-01-19T09:18:09.669Z,-1.50
2019-01-19T09:20:39.328Z,-1.30
2019-01-19T09:23:16.819Z,-0.90
2019-01-19T09:25:49.061Z,-1.00
2019-01-19T09:28:18.779Z,-1.00
2019-01-19T09:30:48.427Z,-1.20
2019-01-19T09:33:18.417Z,-0.80
2019-01-19T09:35:49.220Z,-1.00
2019-01-19T09:38:18.847Z,-1.10
2019-01-19T09:40:48.564Z,-0.80
2019-01-19T09:43:18.343Z,-0.60
2019-01-19T09:45:48.180Z,-0.30
2019-01-19T09:48:17.864Z,-0.40
2019-01-19T09:50:47.605Z,-0.50
2019-01-19T09:53:17.255Z,-0.40
2019-01-19T09:55:46.923Z,-0.10
2019-01-19T09:58:16.593Z,-0.10
2019-01-19T10:00:46.413Z,-0.20
2019-01-19T10:03:16.061Z,-0.20
2019-01-19T10:05:45.712Z,-0.50
2019-01-19T10:08:17.124Z,-0.10
2019-01-19T10:10:47.016Z,0.00
2019-01-19T10:13:17.885Z,-0.50
2019-01-19T10:15:47.473Z,-0.60
2019-01-19T10:18:17.620Z,-0.40
2019-01-19T10:20:47.287Z,-0.50
2019-01-19T10:23:16.913Z,-0.20
2019-01-19T10:25:46.656Z,0.10
2019-01-19T10:28:16.308Z,-0.40
2019-01-19T10:30:45.963Z,0.20
2019-01-19T10:33:15.655Z,-0.10
2019-01-19T10:35:45.309Z,-0.30
2019-01-19T10:38:15.068Z,-0.40
2019-01-19T10:40:44.714Z,-0.50
2019-01-19T10:43:14.413Z,-0.50
2019-01-19T10:45:44.054Z,-0.50
2019-01-19T10:48:13.760Z,-0.40
2019-01-19T10:50:43.406Z,0.20
2019-01-19T10:53:13.445Z,0.30
2019-01-19T10:55:43.211Z,0.00
2019-01-19T10:58:13.008Z,-0.30
2019-01-19T11:00:42.729Z,0.10
2019-01-19T11:03:12.496Z,0.20
2019-01-19T11:05:42.140Z,0.40
2019-01-19T11:08:12.204Z,-0.20
2019-01-19T11:10:41.869Z,0.00
2019-01-19T11:13:11.560Z,0.30
2019-01-19T11:15:41.284Z,0.50
2019-01-19T11:18:11.073Z,0.40
2019-01-19T11:20:40.808Z,0.50
2019-01-19T11:23:10.516Z,0.80
2019-01-19T11:25:40.181Z,2.00
2019-01-19T11:28:09.873Z,2.00
2019-01-19T11:30:39.525Z,1.40
2019-01-19T11:33:09.148Z,1.10
2019-01-19T11:35:38.913Z,0.90
2019-01-19T11:38:12.054Z,0.90
2019-01-19T11:40:40.152Z,0.80
2019-01-19T11:43:10.116Z,0.70
2019-01-19T11:45:39.883Z,0.70
2019-01-19T11:48:08.921Z,0.70
2019-01-19T11:50:37.704Z,0.70
2019-01-19T11:53:07.408Z,0.40
2019-01-19T11:55:36.257Z,0.50
2019-01-19T11:58:05.284Z,0.70
2019-01-19T12:00:38.084Z,0.40
2019-01-19T12:03:06.937Z,0.60
2019-01-19T12:05:35.781Z,0.40
2019-01-19T12:08:04.733Z,0.30
2019-01-19T12:10:33.505Z,0.40
2019-01-19T12:13:02.465Z,0.40
2019-01-19T12:15:31.220Z,0.60
2019-01-19T12:18:00.117Z,0.40
2019-01-19T12:20:30.262Z,0.40
2019-01-19T12:22:59.115Z,0.70
2019-01-19T12:25:29.994Z,0.80
2019-01-19T12:27:58.467Z,0.80
2019-01-19T12:30:28.764Z,1.00
2019-01-19T12:32:57.717Z,1.00
2019-01-19T12:35:26.664Z,0.70
2019-01-19T12:37:55.733Z,0.40
2019-01-19T12:40:28.620Z,0.50
2019-01-19T12:42:58.878Z,0.80
2019-01-19T12:45:31.791Z,0.60
2019-01-19T12:48:00.711Z,0.40
2019-01-19T12:50:29.550Z,0.40
2019-01-19T12:52:58.332Z,0.70
2019-01-19T12:55:27.163Z,0.50
2019-01-19T12:57:55.964Z,0.40
2019-01-19T13:00:26.096Z,0.40
2019-01-19T13:02:55.344Z,0.70
2019-01-19T13:05:27.112Z,0.90
2019-01-19T13:07:55.919Z,1.00
2019-01-19T13:10:35.381Z,1.00
2019-01-19T13:13:05.225Z,1.10
2019-01-19T13:15:47.513Z,1.10
2019-01-19T13:18:17.865Z,0.90
2019-01-19T13:20:49.908Z,0.70
2019-01-19T13:23:20.205Z,0.80
2019-01-19T13:25:50.495Z,1.00
2019-01-19T13:28:23.885Z,1.10
2019-01-19T13:30:59.988Z,1.00
2019-01-19T13:33:36.185Z,1.00
2019-01-19T13:36:18.085Z,0.80
2019-01-19T13:38:57.697Z,0.90
2019-01-19T13:41:44.417Z,0.70
2019-01-19T13:44:14.776Z,0.80
2019-01-19T13:47:00.044Z,1.00
2019-01-19T13:49:42.593Z,1.00
2019-01-19T13:52:16.148Z,0.80
2019-01-19T13:55:01.698Z,0.60
2019-01-19T13:57:31.968Z,0.50
2019-01-19T14:00:18.401Z,0.50
2019-01-19T14:02:46.321Z,0.90
2019-01-19T14:05:22.847Z,1.10
2019-01-19T14:07:53.147Z,1.10
2019-01-19T14:10:23.465Z,1.10
2019-01-19T14:13:13.440Z,1.20
2019-01-19T14:16:00.730Z,1.30
2019-01-19T14:18:31.029Z,1.10
2019-01-19T14:21:01.328Z,1.20
2019-01-19T14:23:31.835Z,1.20
2019-01-19T14:26:17.200Z,1.30
2019-01-19T14:29:04.176Z,1.40
2019-01-19T14:31:34.497Z,1.30
2019-01-19T14:34:04.873Z,1.20
2019-01-19T14:36:47.580Z,1.20
2019-01-19T14:39:26.903Z,1.10
2019-01-19T14:42:00.328Z,1.10
2019-01-19T14:44:36.588Z,1.20
2019-01-19T14:47:09.909Z,1.10
2019-01-19T14:49:49.193Z,1.10
2019-01-19T14:52:19.501Z,1.10
2019-01-19T14:54:49.900Z,1.00
2019-01-19T14:57:37.975Z,0.90
2019-01-19T15:00:11.885Z,0.90
2019-01-19T15:02:45.122Z,0.90
2019-01-19T15:05:18.388Z,1.00
2019-01-19T15:07:48.690Z,1.00
2019-01-19T15:10:21.893Z,0.90
2019-01-19T15:13:04.464Z,1.00
2019-01-19T15:15:37.532Z,0.70
2019-01-19T15:18:16.842Z,0.70
2019-01-19T15:21:02.377Z,0.70
2019-01-19T15:23:32.691Z,0.70
2019-01-19T15:26:03.047Z,0.60
2019-01-19T15:28:49.928Z,0.60
2019-01-19T15:31:26.254Z,0.50
2019-01-19T15:33:56.545Z,0.50
2019-01-19T15:36:26.872Z,0.40
2019-01-19T15:39:12.835Z,0.20
2019-01-19T15:41:46.108Z,0.20
2019-01-19T15:44:16.415Z,0.30
2019-01-19T15:47:03.365Z,0.30
2019-01-19T15:49:39.851Z,0.30
2019-01-19T15:52:11.935Z,0.30
2019-01-19T15:54:42.981Z,0.10
2019-01-19T15:57:14.076Z,0.10
2019-01-19T15:59:53.753Z,0.20
2019-01-19T16:02:39.996Z,0.10
2019-01-19T16:05:10.788Z,0.10
2019-01-19T16:07:50.438Z,0.00
2019-01-19T16:10:21.164Z,0.10
2019-01-19T16:12:52.203Z,-0.10
2019-01-19T16:15:41.570Z,-0.10
2019-01-19T16:18:12.406Z,-0.10
2019-01-19T16:20:43.051Z,-0.20
2019-01-19T16:23:25.784Z,-0.30
2019-01-19T16:26:02.419Z,-0.40
2019-01-19T16:28:35.711Z,-0.60
2019-01-19T16:31:05.982Z,-1.00
2019-01-19T16:33:39.378Z,-0.70
2019-01-19T16:36:09.705Z,-0.70
2019-01-19T16:38:40.012Z,-0.70
2019-01-19T16:41:27.557Z,-0.70
2019-01-19T16:44:00.807Z,-0.70
2019-01-19T16:46:31.182Z,-0.80
2019-01-19T16:49:16.501Z,-0.90
2019-01-19T16:51:59.012Z,-1.00
2019-01-19T16:54:32.761Z,-1.20
2019-01-19T16:57:21.463Z,-1.20
2019-01-19T16:59:52.538Z,-1.00
2019-01-19T17:02:25.631Z,-1.00
2019-01-19T17:04:55.986Z,-1.20
2019-01-19T17:07:29.261Z,-1.20
2019-01-19T17:10:02.501Z,-1.30
2019-01-19T17:12:48.149Z,-1.10
2019-01-19T17:15:21.672Z,-1.10
2019-01-19T17:17:52.014Z,-1.20
2019-01-19T17:20:22.313Z,-1.10
2019-01-19T17:22:52.649Z,-1.10
2019-01-19T17:25:23.053Z,-1.10
2019-01-19T17:28:02.404Z,-0.90
2019-01-19T17:30:44.740Z,-0.90
2019-01-19T17:33:15.089Z,-1.20
2019-01-19T17:35:51.693Z,-1.20
2019-01-19T17:38:34.434Z,-1.20
2019-01-19T17:41:18.128Z,-1.40
2019-01-19T17:43:54.904Z,-1.40
2019-01-19T17:46:37.603Z,-1.20
2019-01-19T17:49:14.116Z,-1.20
2019-01-19T17:51:56.802Z,-1.30
2019-01-19T17:54:27.110Z,-1.30
2019-01-19T17:57:00.521Z,-1.30
2019-01-19T17:59:30.891Z,-1.30
2019-01-19T18:02:17.757Z,-1.30
2019-01-19T18:05:03.792Z,-1.20
2019-01-19T18:07:35.307Z,-1.30
2019-01-19T18:10:22.459Z,-1.50
2019-01-19T18:12:53.070Z,-1.30
2019-01-19T18:15:23.805Z,-1.40
2019-01-19T18:17:57.096Z,-1.50
2019-01-19T18:20:30.977Z,-1.40
2019-01-19T18:23:04.209Z,-1.20
2019-01-19T18:25:46.605Z,-1.20
2019-01-19T18:28:17.320Z,-1.30
2019-01-19T18:30:50.529Z,-1.20
2019-01-19T18:33:32.825Z,-1.40
2019-01-19T18:36:06.200Z,-1.50
2019-01-19T18:38:51.754Z,-1.60
2019-01-19T18:41:40.035Z,-1.50
2019-01-19T18:44:16.095Z,-1.60
2019-01-19T18:46:46.406Z,-1.60
2019-01-19T18:49:16.734Z,-1.60
2019-01-19T18:51:56.172Z,-1.70
2019-01-19T18:54:32.297Z,-1.60
2019-01-19T18:57:19.182Z,-1.60
2019-01-19T18:59:49.548Z,-1.60
2019-01-19T19:02:22.956Z,-1.50
2019-01-19T19:04:55.982Z,-1.30
2019-01-19T19:07:29.688Z,-1.30
2019-01-19T19:10:02.844Z,-1.40
2019-01-19T19:12:33.154Z,-1.60
2019-01-19T19:15:15.756Z,-1.60
2019-01-19T19:17:51.816Z,-1.50
2019-01-19T19:20:27.913Z,-1.70
2019-01-19T19:22:58.217Z,-1.50
2019-01-19T19:25:40.516Z,-1.40
2019-01-19T19:28:10.869Z,-1.50
2019-01-19T19:30:56.285Z,-1.50
2019-01-19T19:33:32.280Z,-1.40
2019-01-19T19:36:19.086Z,-1.50
2019-01-19T19:38:49.331Z,-1.70
2019-01-19T19:41:31.688Z,-1.80
2019-01-19T19:44:14.139Z,-1.70
2019-01-19T19:46:47.161Z,-1.60
2019-01-19T19:49:23.253Z,-1.90
2019-01-19T19:52:01.397Z,-2.10
2019-01-19T19:54:30.338Z,-2.20
2019-01-19T19:56:59.586Z,-2.30
2019-01-19T19:59:28.280Z,-2.40
2019-01-19T20:01:57.144Z,-2.40
2019-01-19T20:04:26.136Z,-2.50
2019-01-19T20:06:55.056Z,-2.50
2019-01-19T20:09:23.887Z,-2.50
2019-01-19T20:11:54.128Z,-2.50
2019-01-19T20:14:22.896Z,-2.60
2019-01-19T20:16:51.696Z,-2.40
2019-01-19T20:19:20.519Z,-2.50
2019-01-19T20:21:49.312Z,-2.50
2019-01-19T20:24:18.096Z,-2.50
2019-01-19T20:26:46.883Z,-2.60
2019-01-19T20:29:15.717Z,-2.40
2019-01-19T20:31:44.518Z,-2.50
2019-01-19T20:34:13.282Z,-2.50
2019-01-19T20:36:42.141Z,-2.50
2019-01-19T20:39:10.978Z,-2.70
2019-01-19T20:41:39.847Z,-2.80
2019-01-19T20:44:08.676Z,-3.00
2019-01-19T20:46:37.464Z,-3.10
2019-01-19T20:49:07.564Z,-3.00
2019-01-19T20:51:36.377Z,-3.00
2019-01-19T20:54:05.206Z,-2.90
2019-01-19T20:56:33.999Z,-3.00
2019-01-19T20:59:02.860Z,-3.00
2019-01-19T21:01:31.660Z,-3.00
2019-01-19T21:04:00.442Z,-3.00
2019-01-19T21:06:29.311Z,-3.00
2019-01-19T21:08:58.063Z,-3.20
2019-01-19T21:11:26.934Z,-3.20
2019-01-19T21:13:55.704Z,-3.50
2019-01-19T21:16:24.500Z,-3.40
2019-01-19T21:18:53.654Z,-3.30
2019-01-19T21:21:22.441Z,-3.40
2019-01-19T21:23:51.212Z,-3.40
2019-01-19T21:26:20.002Z,-3.40
2019-01-19T21:28:48.837Z,-3.50
2019-01-19T21:31:17.624Z,-3.40
2019-01-19T21:33:46.385Z,-3.20
2019-01-19T21:36:15.187Z,-3.20
2019-01-19T21:38:43.979Z,-3.10
2019-01-19T21:41:12.779Z,-3.40
2019-01-19T21:43:41.549Z,-3.40
2019-01-19T21:46:10.344Z,-3.30
2019-01-19T21:48:39.168Z,-3.40
2019-01-19T21:51:07.954Z,-3.40
2019-01-19T21:53:36.723Z,-3.30
2019-01-19T21:56:05.485Z,-3.30
2019-01-19T21:58:34.386Z,-3.30
2019-01-19T22:01:03.324Z,-3.30
2019-01-19T22:03:32.108Z,-3.20
2019-01-19T22:06:00.881Z,-3.40
2019-01-19T22:08:29.678Z,-3.80
2019-01-19T22:10:58.469Z,-3.50
2019-01-19T22:13:27.262Z,-3.50
2019-01-19T22:15:56.059Z,-3.50
2019-01-19T22:18:24.846Z,-3.40
2019-01-19T22:20:53.626Z,-3.50
2019-01-19T22:23:22.412Z,-3.50
2019-01-19T22:25:51.176Z,-3.40
2019-01-19T22:28:20.211Z,-3.50
2019-01-19T22:30:48.979Z,-3.60
2019-01-19T22:33:18.236Z,-3.60
2019-01-19T22:35:47.013Z,-3.70
2019-01-19T22:38:15.900Z,-3.70
2019-01-19T22:40:44.684Z,-3.80
2019-01-19T22:43:13.492Z,-3.70
2019-01-19T22:45:42.257Z,-3.80
2019-01-19T22:48:11.070Z,-3.80
2019-01-19T22:50:39.891Z,-3.90
2019-01-19T22:53:08.692Z,-4.00
2019-01-19T22:55:40.271Z,-4.00
2019-01-19T22:58:09.177Z,-3.80
2019-01-19T23:00:59.312Z,-3.80
2019-01-19T23:03:28.985Z,-3.80
2019-01-19T23:05:57.816Z,-3.90
2019-01-19T23:08:26.684Z,-3.90
2019-01-19T23:11:01.093Z,-4.00
2019-01-19T23:13:25.864Z,-3.80
2019-01-19T23:15:54.719Z,-4.00
2019-01-19T23:18:23.596Z,-4.00
2019-01-19T23:20:52.375Z,-4.00
2019-01-19T23:23:21.183Z,-4.00
2019-01-19T23:25:50.008Z,-3.90
2019-01-19T23:28:18.801Z,-4.00
2019-01-19T23:30:47.564Z,-3.90
2019-01-19T23:33:16.428Z,-3.90
2019-01-19T23:35:45.202Z,-3.90
2019-01-19T23:38:13.993Z,-3.90
2019-01-19T23:40:42.757Z,-3.90
2019-01-19T23:43:11.563Z,-4.10
2019-01-19T23:45:40.336Z,-4.20
2019-01-19T23:48:11.090Z,-4.00
2019-01-19T23:50:39.552Z,-4.10
2019-01-19T23:53:08.328Z,-4.00
2019-01-19T23:55:37.123Z,-4.10
2019-01-19T23:58:06.029Z,-3.90
